createdAt,value
2019-02-03T00:00:22.351Z,1.50
2019-02-03T00:02:53.404Z,1.50
2019-02-03T00:05:22.896Z,1.60
2019-02-03T00:07:52.815Z,1.60
2019-02-03T00:10:23.644Z,1.50
2019-02-03T00:12:53.126Z,1.50
2019-02-03T00:15:24.028Z,1.50
2019-02-03T00:17:53.517Z,1.60
2019-02-03T00:20:24.838Z,1.70
2019-02-03T00:22:54.326Z,1.70
2019-02-03T00:25:23.779Z,2.00
2019-02-03T00:27:53.199Z,2.00
2019-02-03T00:30:24.019Z,1.90
2019-02-03T00:32:53.908Z,1.90
2019-02-03T00:35:23.433Z,1.90
2019-02-03T00:37:52.986Z,2.10
2019-02-03T00:40:24.078Z,1.90
2019-02-03T00:42:53.639Z,1.90
2019-02-03T00:45:23.090Z,2.00
2019-02-03T00:47:52.506Z,2.00
2019-02-03T00:50:23.328Z,2.00
2019-02-03T00:52:52.755Z,2.00
2019-02-03T00:55:23.577Z,1.90
2019-02-03T00:57:52.991Z,1.80
2019-02-03T01:00:23.774Z,1.70
2019-02-03T01:02:53.266Z,1.70
2019-02-03T01:05:22.863Z,1.90
2019-02-03T01:07:52.353Z,2.00
2019-02-03T01:10:23.019Z,2.00
2019-02-03T01:12:52.514Z,2.10
2019-02-03T01:15:23.231Z,2.00
2019-02-03T01:17:52.717Z,1.90
2019-02-03T01:20:24.586Z,2.00
2019-02-03T01:22:54.035Z,2.00
2019-02-03T01:25:25.028Z,2.00
2019-02-03T01:27:54.447Z,2.10
2019-02-03T01:30:25.166Z,2.20
2019-02-03T01:32:54.586Z,2.10
2019-02-03T01:35:24.113Z,2.10
2019-02-03T01:37:53.922Z,2.20
2019-02-03T01:40:24.665Z,2.10
2019-02-03T01:42:54.158Z,2.10
2019-02-03T01:45:23.875Z,2.10
2019-02-03T01:47:53.304Z,2.10
2019-02-03T01:50:22.786Z,2.10
2019-02-03T01:52:52.277Z,2.10
2019-02-03T01:55:26.371Z,2.20
2019-02-03T01:57:55.971Z,2.20
2019-02-03T02:00:28.930Z,2.10
2019-02-03T02:02:58.967Z,2.10
2019-02-03T02:05:28.573Z,2.20
2019-02-03T02:07:58.091Z,2.20
2019-02-03T02:10:28.598Z,2.30
2019-02-03T02:12:58.127Z,2.20
2019-02-03T02:15:27.623Z,2.30
2019-02-03T02:17:57.143Z,2.20
2019-02-03T02:20:29.082Z,2.20
2019-02-03T02:22:58.584Z,2.20
2019-02-03T02:25:29.773Z,2.20
2019-02-03T02:27:59.257Z,2.20
2019-02-03T02:30:30.406Z,2.30
2019-02-03T02:32:59.934Z,2.20
2019-02-03T02:35:29.472Z,2.30
2019-02-03T02:38:06.398Z,2.20
2019-02-03T02:40:31.492Z,2.20
2019-02-03T02:43:01.106Z,2.30
2019-02-03T02:45:30.599Z,2.30
2019-02-03T02:48:00.157Z,2.20
2019-02-03T02:50:39.471Z,2.20
2019-02-03T02:53:08.931Z,2.20
2019-02-03T02:55:38.422Z,2.20
2019-02-03T02:58:07.982Z,2.20
2019-02-03T03:00:37.440Z,2.20
2019-02-03T03:03:06.939Z,2.10
2019-02-03T03:05:36.483Z,2.20
2019-02-03T03:08:18.155Z,2.20
2019-02-03T03:10:37.483Z,2.20
2019-02-03T03:13:06.963Z,2.10
2019-02-03T03:15:37.691Z,2.10
2019-02-03T03:18:07.180Z,2.10
2019-02-03T03:20:37.134Z,2.10
2019-02-03T03:23:06.631Z,2.20
2019-02-03T03:25:36.086Z,2.20
2019-02-03T03:28:05.505Z,2.20
2019-02-03T03:30:36.476Z,2.20
2019-02-03T03:33:05.982Z,2.20
2019-02-03T03:35:37.921Z,2.20
2019-02-03T03:38:07.308Z,2.20
2019-02-03T03:40:38.137Z,2.20
2019-02-03T03:43:07.706Z,2.10
2019-02-03T03:45:37.174Z,2.10
2019-02-03T03:48:06.672Z,2.10
2019-02-03T03:50:36.390Z,2.10
2019-02-03T03:53:05.814Z,2.10
2019-02-03T03:55:35.340Z,2.10
2019-02-03T03:58:05.220Z,2.10
2019-02-03T04:00:35.044Z,2.10
2019-02-03T04:03:04.523Z,2.20
2019-02-03T04:05:34.035Z,2.10
2019-02-03T04:08:03.630Z,2.10
2019-02-03T04:10:33.079Z,2.10
2019-02-03T04:13:02.500Z,2.10
2019-02-03T04:15:33.525Z,2.10
2019-02-03T04:18:02.970Z,2.10
2019-02-03T04:20:32.497Z,2.10
2019-02-03T04:23:01.908Z,2.10
2019-02-03T04:25:32.632Z,2.00
2019-02-03T04:28:02.111Z,2.10
2019-02-03T04:30:32.831Z,2.00
2019-02-03T04:33:02.282Z,2.00
2019-02-03T04:35:33.027Z,2.00
2019-02-03T04:38:02.551Z,2.00
2019-02-03T04:40:34.136Z,2.00
2019-02-03T04:43:03.763Z,2.00
2019-02-03T04:45:33.356Z,2.00
2019-02-03T04:48:02.862Z,2.00
2019-02-03T04:50:34.884Z,1.90
2019-02-03T04:53:03.546Z,2.00
2019-02-03T04:55:34.236Z,2.00
2019-02-03T04:58:03.685Z,2.00
2019-02-03T05:00:34.677Z,1.90
2019-02-03T05:03:04.194Z,2.00
2019-02-03T05:05:35.084Z,1.90
2019-02-03T05:08:04.625Z,1.90
2019-02-03T05:10:35.317Z,1.90
2019-02-03T05:13:04.762Z,1.90
2019-02-03T05:15:35.540Z,1.90
2019-02-03T05:18:05.058Z,1.90
2019-02-03T05:20:35.854Z,1.90
2019-02-03T05:23:05.311Z,1.90
2019-02-03T05:25:34.728Z,1.90
2019-02-03T05:28:04.188Z,1.90
2019-02-03T05:30:34.911Z,1.90
2019-02-03T05:33:04.661Z,1.90
2019-02-03T05:35:35.542Z,1.90
2019-02-03T05:38:04.991Z,1.90
2019-02-03T05:40:35.872Z,1.90
2019-02-03T05:43:05.325Z,1.90
2019-02-03T05:45:35.203Z,1.90
2019-02-03T05:48:05.178Z,1.90
2019-02-03T05:50:36.067Z,1.80
2019-02-03T05:53:05.531Z,1.70
2019-02-03T05:55:34.955Z,1.80
2019-02-03T05:58:04.376Z,1.80
2019-02-03T06:00:35.463Z,1.80
2019-02-03T06:03:05.120Z,1.80
2019-02-03T06:05:36.139Z,1.80
2019-02-03T06:08:05.821Z,1.70
2019-02-03T06:10:36.779Z,1.80
2019-02-03T06:13:06.195Z,1.70
2019-02-03T06:15:35.652Z,1.70
2019-02-03T06:18:05.135Z,1.70
2019-02-03T06:20:35.855Z,1.80
2019-02-03T06:23:05.282Z,1.80
2019-02-03T06:25:36.294Z,1.80
2019-02-03T06:28:05.706Z,1.80
2019-02-03T06:30:54.862Z,1.80
2019-02-03T06:33:24.349Z,1.70
2019-02-03T06:35:53.868Z,1.70
2019-02-03T06:38:23.354Z,1.70
2019-02-03T06:40:52.862Z,1.70
2019-02-03T06:43:22.275Z,1.70
2019-02-03T06:45:54.826Z,1.70
2019-02-03T06:48:26.079Z,1.70
2019-02-03T06:50:55.522Z,1.60
2019-02-03T06:53:24.934Z,1.60
2019-02-03T06:55:55.656Z,1.60
2019-02-03T06:58:25.073Z,1.60
2019-02-03T07:00:54.828Z,1.60
2019-02-03T07:03:24.227Z,1.60
2019-02-03T07:05:53.672Z,1.60
2019-02-03T07:08:23.083Z,1.60
2019-02-03T07:10:52.532Z,1.60
2019-02-03T07:13:21.959Z,1.50
2019-02-03T07:15:52.868Z,1.50
2019-02-03T07:18:22.289Z,1.50
2019-02-03T07:20:51.739Z,1.50
2019-02-03T07:23:21.158Z,1.40
2019-02-03T07:25:52.078Z,1.40
2019-02-03T07:28:21.702Z,1.40
2019-02-03T07:30:51.219Z,1.40
2019-02-03T07:33:20.710Z,1.40
2019-02-03T07:35:51.416Z,1.40
2019-02-03T07:38:20.828Z,1.50
2019-02-03T07:40:50.281Z,1.40
2019-02-03T07:43:19.696Z,1.40
2019-02-03T07:45:49.219Z,1.30
2019-02-03T07:48:18.637Z,1.30
2019-02-03T07:50:48.115Z,1.30
2019-02-03T07:53:17.567Z,1.40
2019-02-03T07:55:47.307Z,1.30
2019-02-03T07:58:16.771Z,1.40
2019-02-03T08:00:47.446Z,1.40
2019-02-03T08:03:16.968Z,1.40
2019-02-03T08:05:47.751Z,1.40
2019-02-03T08:08:17.268Z,1.30
2019-02-03T08:10:46.689Z,1.30
2019-02-03T08:13:16.611Z,1.30
2019-02-03T08:15:47.899Z,1.30
2019-02-03T08:18:17.420Z,1.30
2019-02-03T08:20:48.304Z,1.30
2019-02-03T08:23:17.831Z,1.30
2019-02-03T08:25:48.626Z,1.30
2019-02-03T08:28:18.150Z,1.30
2019-02-03T08:30:47.623Z,1.20
2019-02-03T08:33:17.137Z,1.10
2019-02-03T08:35:47.126Z,1.10
2019-02-03T08:38:17.343Z,1.10
2019-02-03T08:40:46.826Z,1.20
2019-02-03T08:43:16.738Z,1.20
2019-02-03T08:45:47.520Z,1.00
2019-02-03T08:48:17.030Z,1.00
2019-02-03T08:50:48.115Z,1.00
2019-02-03T08:53:17.567Z,1.10
2019-02-03T08:55:48.354Z,1.10
2019-02-03T08:58:17.797Z,1.10
2019-02-03T09:00:47.211Z,1.10
2019-02-03T09:03:17.688Z,1.10
2019-02-03T09:05:48.531Z,1.10
2019-02-03T09:08:17.984Z,1.10
2019-02-03T09:10:48.797Z,1.20
2019-02-03T09:13:19.855Z,1.20
2019-02-03T09:15:51.911Z,1.10
2019-02-03T09:18:20.844Z,1.00
2019-02-03T09:20:50.258Z,1.10
2019-02-03T09:23:19.694Z,1.20
2019-02-03T09:25:50.606Z,1.20
2019-02-03T09:28:20.432Z,1.30
2019-02-03T09:30:51.163Z,1.20
2019-02-03T09:33:20.575Z,1.10
2019-02-03T09:35:50.037Z,1.10
2019-02-03T09:38:19.459Z,1.10
2019-02-03T09:40:59.820Z,1.10
2019-02-03T09:43:21.490Z,1.20
2019-02-03T09:45:51.009Z,1.10
2019-02-03T09:48:20.427Z,1.20
2019-02-03T09:50:49.867Z,1.10
2019-02-03T09:53:19.286Z,1.00
2019-02-03T09:55:49.144Z,1.00
2019-02-03T09:58:18.632Z,1.00
2019-02-03T10:00:49.549Z,0.90
2019-02-03T10:03:19.031Z,0.90
2019-02-03T10:05:48.548Z,0.90
2019-02-03T10:08:17.957Z,0.70
2019-02-03T10:10:48.766Z,0.80
2019-02-03T10:13:18.248Z,0.70
2019-02-03T10:15:47.774Z,0.60
2019-02-03T10:18:17.322Z,0.60
2019-02-03T10:20:46.883Z,0.70
2019-02-03T10:23:16.594Z,0.70
2019-02-03T10:25:46.098Z,0.60
2019-02-03T10:28:15.674Z,0.60
2019-02-03T10:30:46.399Z,0.70
2019-02-03T10:33:15.812Z,0.60
2019-02-03T10:35:46.624Z,0.50
2019-02-03T10:38:16.111Z,0.50
2019-02-03T10:40:45.685Z,0.50
2019-02-03T10:43:15.105Z,0.40
2019-02-03T10:45:44.641Z,0.50
2019-02-03T10:48:14.719Z,0.50
2019-02-03T10:50:45.438Z,0.50
2019-02-03T10:53:15.320Z,0.40
2019-02-03T10:55:44.839Z,0.40
2019-02-03T10:58:14.244Z,0.50
2019-02-03T11:00:45.075Z,0.30
2019-02-03T11:03:14.959Z,0.40
2019-02-03T11:05:51.699Z,0.40
2019-02-03T11:08:21.116Z,0.50
2019-02-03T11:10:51.848Z,0.60
2019-02-03T11:13:21.410Z,0.50
2019-02-03T11:15:52.195Z,0.40
2019-02-03T11:18:21.876Z,0.50
2019-02-03T11:20:52.606Z,0.40
2019-02-03T11:23:22.130Z,0.40
2019-02-03T11:25:52.829Z,0.50
2019-02-03T11:28:22.274Z,0.40
2019-02-03T11:30:53.091Z,0.50
2019-02-03T11:33:22.543Z,0.50
2019-02-03T11:35:53.318Z,0.50
2019-02-03T11:38:22.832Z,0.50
2019-02-03T11:40:53.751Z,0.50
2019-02-03T11:43:23.468Z,0.60
2019-02-03T11:45:54.255Z,0.40
2019-02-03T11:48:23.707Z,0.40
2019-02-03T11:50:53.199Z,0.50
2019-02-03T11:53:25.065Z,0.60
2019-02-03T11:55:54.967Z,0.60
2019-02-03T11:58:24.480Z,0.60
2019-02-03T12:00:55.890Z,0.60
2019-02-03T12:03:25.407Z,0.70
2019-02-03T12:05:54.898Z,0.70
2019-02-03T12:08:24.455Z,0.60
2019-02-03T12:10:55.232Z,0.70
2019-02-03T12:13:24.671Z,0.60
2019-02-03T12:15:55.451Z,0.70
2019-02-03T12:18:24.970Z,0.80
2019-02-03T12:20:55.669Z,0.80
2019-02-03T12:23:25.109Z,0.80
2019-02-03T12:25:54.590Z,0.80
2019-02-03T12:28:24.062Z,0.80
2019-02-03T12:30:54.845Z,0.90
2019-02-03T12:33:24.285Z,0.90
2019-02-03T12:35:53.815Z,0.90
2019-02-03T12:38:23.558Z,0.90
2019-02-03T12:40:54.364Z,0.90
2019-02-03T12:43:23.891Z,0.90
2019-02-03T12:45:53.376Z,0.90
2019-02-03T12:48:22.872Z,1.10
2019-02-03T12:50:52.683Z,1.00
2019-02-03T12:53:22.088Z,0.90
2019-02-03T12:55:52.815Z,0.80
2019-02-03T12:58:22.228Z,0.90
2019-02-03T13:00:53.032Z,0.70
2019-02-03T13:03:25.239Z,0.80
2019-02-03T13:05:55.679Z,0.80
2019-02-03T13:08:25.163Z,0.70
2019-02-03T13:10:55.892Z,0.70
2019-02-03T13:13:25.374Z,0.60
2019-02-03T13:15:54.824Z,0.60
2019-02-03T13:18:24.296Z,0.60
2019-02-03T13:20:53.745Z,0.50
2019-02-03T13:23:23.148Z,0.50
2019-02-03T13:25:52.600Z,0.50
2019-02-03T13:28:22.000Z,0.40
2019-02-03T13:30:51.914Z,0.50
2019-02-03T13:33:22.009Z,0.60
2019-02-03T13:35:53.011Z,0.50
2019-02-03T13:38:22.424Z,0.60
2019-02-03T13:40:51.863Z,0.40
2019-02-03T13:43:22.902Z,0.40
2019-02-03T13:45:53.820Z,0.50
2019-02-03T13:48:23.222Z,0.50
2019-02-03T13:50:54.944Z,0.30
2019-02-03T13:53:24.366Z,0.30
2019-02-03T13:55:54.187Z,0.30
2019-02-03T13:58:23.667Z,0.40
2019-02-03T14:00:53.111Z,0.40
2019-02-03T14:03:22.594Z,0.50
2019-02-03T14:05:53.506Z,0.50
2019-02-03T14:08:23.131Z,0.40
2019-02-03T14:10:53.841Z,0.40
2019-02-03T14:13:23.355Z,0.50
2019-02-03T14:15:54.139Z,0.60
2019-02-03T14:18:23.616Z,0.60
2019-02-03T14:20:53.060Z,0.60
2019-02-03T14:23:22.564Z,0.60
2019-02-03T14:25:52.019Z,0.60
2019-02-03T14:28:21.423Z,0.60
2019-02-03T14:30:51.420Z,0.60
2019-02-03T14:33:20.935Z,0.60
2019-02-03T14:35:51.618Z,0.50
2019-02-03T14:38:21.122Z,0.40
2019-02-03T14:40:50.603Z,0.60
2019-02-03T14:43:20.055Z,0.60
2019-02-03T14:45:50.735Z,0.50
2019-02-03T14:48:20.575Z,0.50
2019-02-03T14:50:50.058Z,0.60
2019-02-03T14:53:19.495Z,0.50
2019-02-03T14:55:51.810Z,0.50
2019-02-03T14:58:20.108Z,0.50
2019-02-03T15:00:49.582Z,0.60
2019-02-03T15:03:20.179Z,0.60
2019-02-03T15:05:50.966Z,0.60
2019-02-03T15:08:20.483Z,0.70
2019-02-03T15:10:51.262Z,0.60
2019-02-03T15:13:20.724Z,0.70
2019-02-03T15:15:51.603Z,0.60
2019-02-03T15:18:21.055Z,0.70
2019-02-03T15:20:51.840Z,0.50
2019-02-03T15:23:21.285Z,0.60
2019-02-03T15:25:52.081Z,0.60
2019-02-03T15:28:21.600Z,0.50
2019-02-03T15:30:52.388Z,0.60
2019-02-03T15:33:21.830Z,0.50
2019-02-03T15:35:51.319Z,0.50
2019-02-03T15:38:20.845Z,0.50
2019-02-03T15:40:51.535Z,0.40
2019-02-03T15:43:25.722Z,0.50
2019-02-03T15:45:53.288Z,0.50
2019-02-03T15:48:22.719Z,0.40
2019-02-03T15:50:52.202Z,0.30
2019-02-03T15:53:21.719Z,0.40
2019-02-03T15:55:51.318Z,0.30
2019-02-03T15:58:20.897Z,0.30
2019-02-03T16:00:52.414Z,0.30
2019-02-03T16:03:21.938Z,0.30
2019-02-03T16:05:52.921Z,0.40
2019-02-03T16:08:22.477Z,0.40
2019-02-03T16:10:51.887Z,0.40
2019-02-03T16:13:21.379Z,0.40
2019-02-03T16:15:52.199Z,0.40
2019-02-03T16:18:21.679Z,0.40
2019-02-03T16:20:52.399Z,0.30
2019-02-03T16:23:21.888Z,0.20
2019-02-03T16:25:52.603Z,0.20
2019-02-03T16:28:22.010Z,0.20
2019-02-03T16:30:52.930Z,0.10
2019-02-03T16:33:22.412Z,0.20
2019-02-03T16:35:53.128Z,0.10
2019-02-03T16:38:23.428Z,0.00
2019-02-03T16:40:54.423Z,-0.10
2019-02-03T16:43:23.914Z,-0.10
2019-02-03T16:45:54.835Z,-0.20
2019-02-03T16:48:24.265Z,-0.20
2019-02-03T16:50:53.707Z,0.00
2019-02-03T16:53:23.126Z,-0.10
2019-02-03T16:55:53.935Z,0.10
2019-02-03T16:58:23.347Z,0.20
2019-02-03T17:00:54.064Z,0.10
2019-02-03T17:03:23.475Z,-0.10
2019-02-03T17:05:53.018Z,-0.10
2019-02-03T17:08:22.547Z,-0.40
2019-02-03T17:10:52.069Z,-0.20
2019-02-03T17:13:21.921Z,-0.20
2019-02-03T17:15:53.278Z,-0.20
2019-02-03T17:18:22.863Z,0.00
2019-02-03T17:21:01.357Z,-0.10
2019-02-03T17:23:25.181Z,-0.10
2019-02-03T17:26:02.153Z,-0.20
2019-02-03T17:28:31.639Z,-0.20
2019-02-03T17:31:01.145Z,0.00
2019-02-03T17:33:30.695Z,-0.10
2019-02-03T17:36:01.413Z,-0.20
2019-02-03T17:38:31.401Z,-0.10
2019-02-03T17:41:02.225Z,-0.10
2019-02-03T17:43:31.715Z,-0.10
2019-02-03T17:46:01.239Z,-0.20
2019-02-03T17:48:30.835Z,0.00
2019-02-03T17:51:00.347Z,0.00
2019-02-03T17:53:29.831Z,-0.10
2019-02-03T17:55:59.358Z,-0.10
2019-02-03T17:58:28.900Z,0.00
2019-02-03T18:01:06.119Z,0.00
2019-02-03T18:03:35.535Z,-0.10
2019-02-03T18:06:05.062Z,0.00
2019-02-03T18:08:34.554Z,0.10
2019-02-03T18:11:04.043Z,0.10
2019-02-03T18:13:33.555Z,0.10
2019-02-03T18:16:04.534Z,0.10
2019-02-03T18:18:34.659Z,-0.10
2019-02-03T18:21:05.455Z,-0.20
2019-02-03T18:23:35.043Z,-0.20
2019-02-03T18:26:04.461Z,-0.30
2019-02-03T18:28:34.044Z,-0.40
2019-02-03T18:31:05.317Z,-0.30
2019-02-03T18:33:34.846Z,-0.40
2019-02-03T18:36:05.531Z,-0.40
2019-02-03T18:38:35.050Z,-0.30
2019-02-03T18:41:05.843Z,-0.30
2019-02-03T18:43:35.291Z,-0.30
2019-02-03T18:46:06.182Z,-0.30
2019-02-03T18:48:37.049Z,-0.20
2019-02-03T18:51:07.929Z,-0.20
2019-02-03T18:53:37.375Z,-0.20
2019-02-03T18:56:08.055Z,0.10
2019-02-03T18:58:37.776Z,0.10
2019-02-03T19:01:07.259Z,0.20
2019-02-03T19:03:36.784Z,0.20
2019-02-03T19:06:07.640Z,0.10
2019-02-03T19:08:37.230Z,0.10
2019-02-03T19:11:08.304Z,0.10
2019-02-03T19:13:37.876Z,0.20
2019-02-03T19:16:08.562Z,0.10
2019-02-03T19:18:38.082Z,0.10
2019-02-03T19:21:07.567Z,0.20
2019-02-03T19:23:37.058Z,0.20
2019-02-03T19:26:07.841Z,0.30
2019-02-03T19:28:37.344Z,0.20
2019-02-03T19:31:08.151Z,0.20
2019-02-03T19:33:37.638Z,0.20
2019-02-03T19:36:07.151Z,0.20
2019-02-03T19:38:36.827Z,0.40
2019-02-03T19:41:07.650Z,0.30
2019-02-03T19:43:37.056Z,0.40
2019-02-03T19:46:08.346Z,0.40
2019-02-03T19:48:38.065Z,0.40
2019-02-03T19:51:09.440Z,0.40
2019-02-03T19:53:39.057Z,0.30
2019-02-03T19:56:09.840Z,0.30
2019-02-03T19:58:39.274Z,0.30
2019-02-03T20:01:10.397Z,0.30
2019-02-03T20:03:39.940Z,0.40
2019-02-03T20:06:09.556Z,0.30
2019-02-03T20:08:39.100Z,0.30
2019-02-03T20:11:08.626Z,0.20
2019-02-03T20:13:38.303Z,0.10
2019-02-03T20:16:07.955Z,0.10
2019-02-03T20:18:37.623Z,0.20
2019-02-03T20:21:07.333Z,0.20
2019-02-03T20:23:36.792Z,0.20
2019-02-03T20:26:06.304Z,0.20
2019-02-03T20:28:35.854Z,0.30
2019-02-03T20:31:06.727Z,0.10
2019-02-03T20:33:36.415Z,0.00
2019-02-03T20:36:07.304Z,0.10
2019-02-03T20:38:36.888Z,0.20
2019-02-03T20:41:07.904Z,0.30
2019-02-03T20:43:37.617Z,0.30
2019-02-03T20:46:07.631Z,0.40
2019-02-03T20:48:37.472Z,0.20
2019-02-03T20:51:07.486Z,0.20
2019-02-03T20:53:36.962Z,0.30
2019-02-03T20:56:06.546Z,0.30
2019-02-03T20:58:36.259Z,0.20
2019-02-03T21:01:06.006Z,0.20
2019-02-03T21:03:35.857Z,0.30
2019-02-03T21:06:05.385Z,0.30
2019-02-03T21:08:34.904Z,0.30
2019-02-03T21:11:05.687Z,0.30
2019-02-03T21:13:35.707Z,0.30
2019-02-03T21:16:06.488Z,0.30
2019-02-03T21:18:36.015Z,0.30
2019-02-03T21:21:06.903Z,0.20
2019-02-03T21:23:38.535Z,0.20
2019-02-03T21:26:15.874Z,0.10
2019-02-03T21:28:42.554Z,0.20
2019-02-03T21:31:10.903Z,0.10
2019-02-03T21:33:40.410Z,0.10
2019-02-03T21:36:09.819Z,0.00
2019-02-03T21:38:39.331Z,0.00
2019-02-03T21:41:08.930Z,-0.10
2019-02-03T21:43:38.436Z,0.00
2019-02-03T21:46:09.115Z,-0.10
2019-02-03T21:48:38.633Z,-0.10
2019-02-03T21:51:08.115Z,-0.10
2019-02-03T21:53:37.936Z,-0.10
2019-02-03T21:56:07.435Z,-0.10
2019-02-03T21:58:36.952Z,0.00
2019-02-03T22:01:06.442Z,0.10
2019-02-03T22:03:35.979Z,-0.10
2019-02-03T22:06:05.467Z,-0.10
2019-02-03T22:08:34.959Z,-0.10
2019-02-03T22:11:05.875Z,-0.20
2019-02-03T22:13:35.291Z,-0.20
2019-02-03T22:16:06.210Z,-0.20
2019-02-03T22:18:35.691Z,-0.20
2019-02-03T22:21:06.923Z,-0.20
2019-02-03T22:23:36.339Z,-0.20
2019-02-03T22:26:07.159Z,-0.10
2019-02-03T22:28:36.963Z,-0.10
2019-02-03T22:31:06.411Z,-0.10
2019-02-03T22:33:36.194Z,-0.10
2019-02-03T22:36:07.007Z,-0.10
2019-02-03T22:38:36.427Z,-0.10
2019-02-03T22:41:07.245Z,0.00
2019-02-03T22:43:36.718Z,0.00
2019-02-03T22:46:07.509Z,0.00
2019-02-03T22:48:37.564Z,-0.10
2019-02-03T22:51:08.276Z,0.10
2019-02-03T22:53:37.684Z,0.00
2019-02-03T22:56:07.194Z,-0.10
2019-02-03T22:58:37.547Z,-0.10
2019-02-03T23:01:09.893Z,-0.10
2019-02-03T23:03:42.411Z,-0.10
2019-02-03T23:06:11.990Z,-0.10
2019-02-03T23:08:41.643Z,-0.10
2019-02-03T23:11:11.158Z,-0.10
2019-02-03T23:13:40.638Z,0.00
2019-02-03T23:16:18.039Z,0.00
2019-02-03T23:18:41.231Z,0.00
2019-02-03T23:21:12.214Z,0.00
2019-02-03T23:23:41.682Z,0.10
2019-02-03T23:26:12.913Z,0.10
2019-02-03T23:28:42.388Z,0.30
2019-02-03T23:31:11.899Z,0.30
2019-02-03T23:33:41.368Z,0.40
2019-02-03T23:36:12.234Z,0.10
2019-02-03T23:38:42.307Z,0.20
2019-02-03T23:41:13.620Z,0.10
2019-02-03T23:43:44.558Z,0.20
2019-02-03T23:46:14.096Z,0.30
2019-02-03T23:48:43.571Z,0.20
2019-02-03T23:51:14.651Z,0.10
2019-02-03T23:53:44.103Z,0.10
2019-02-03T23:56:14.983Z,0.20
2019-02-03T23:58:44.494Z,0.10
